MST,Max TemperatureF,Mean TemperatureF,Min TemperatureF,Max Dew PointF,MeanDew PointF,Min DewpointF,Max Humidity, Mean Humidity, Min Humidity, Max Sea Level PressureIn, Mean Sea Level PressureIn, Min Sea Level PressureIn, Max VisibilityMiles, Mean VisibilityMiles, Min VisibilityMiles, Max Wind SpeedMPH, Mean Wind SpeedMPH, Max Gust SpeedMPH,PrecipitationIn, CloudCover, Events, WindDirDegrees
2012-11-1,61,54,48,34,28,25,47,35,26,29.91,29.85,29.78,10,10,10,15,8,26,0.00,3,,225
2012-11-2,58,51,44,34,31,27,62,48,31,30.07,30.02,29.91,10,10,10,13,6,,0.00,1,,52
2012-11-3,59,48,38,38,31,28,66,53,35,30.22,30.16,30.08,10,10,10,17,10,,0.00,0,,112
2012-11-4,59,50,41,39,31,26,58,49,34,30.37,30.29,30.21,10,10,10,18,10,,0.00,2,,105
2012-11-5,59,50,41,41,34,30,66,57,41,30.42,30.33,30.28,10,10,10,16,10,,0.00,0,,109
2012-11-6,62,52,41,39,35,31,69,55,39,30.32,30.22,30.09,10,10,7,18,12,,0.00,0,,102
2012-11-7,65,54,42,32,29,27,58,41,26,30.07,29.94,29.73,10,10,10,17,12,,0.00,0,,125
2012-11-8,67,56,46,30,27,21,50,32,20,29.72,29.53,29.35,10,10,10,29,15,41,0.00,1,,162
2012-11-9,57,43,29,37,33,29,100,89,37,30.06,29.56,29.30,10,3,0,29,17,44,0.39,8,Fog-Rain-Snow,329
2012-11-10,31,26,21,29,26,19,100,95,67,30.04,29.84,29.68,10,4,0,12,2,,0.14,7,Fog-Snow,173
2012-11-11,28,26,22,25,21,14,100,79,62,30.52,30.28,30.03,10,9,2,16,9,,0.00,6,Snow,186
2012-11-12,32,26,19,22,17,10,70,65,53,30.58,30.48,30.43,10,10,10,16,9,,0.00,6,,111
2012-11-13,42,34,26,26,21,18,74,66,48,30.74,30.40,30.26,10,10,10,17,7,24,0.00,3,,104
2012-11-14,46,38,31,34,28,24,78,68,49,30.30,30.25,30.19,10,10,10,14,8,,0.00,5,,89
2012-11-15,49,40,32,33,30,25,93,73,49,30.33,30.25,30.13,10,10,7,20,9,28,0.00,0,,118
2012-11-16,48,42,37,35,30,26,76,61,43,30.47,30.08,30.02,10,10,10,17,10,22,0.00,6,,131
2012-11-17,53,47,41,43,39,33,82,72,54,30.04,29.95,29.87,10,10,10,24,12,24,0.00,7,Rain,157
2012-11-18,53,46,39,43,39,36,100,75,61,30.10,29.97,29.85,10,9,1,26,13,36,0.20,7,Rain-Thunderstorm,167
2012-11-19,54,47,40,38,35,32,81,70,49,30.21,30.15,30.08,10,10,10,12,7,,0.00,3,,130
2012-11-20,56,48,40,34,32,29,73,56,37,30.19,30.09,29.96,10,10,10,13,5,,0.00,0,,127
2012-11-21,57,49,41,36,32,27,81,56,34,30.11,30.00,29.91,10,10,10,17,11,18,0.00,6,Rain,289
2012-11-22,44,38,32,30,22,17,66,52,32,30.53,30.36,30.11,10,10,10,13,7,,0.00,1,,341
2012-11-23,46,38,30,29,22,18,68,56,37,30.53,30.45,30.32,10,10,10,18,12,,0.00,0,,98
2012-11-24,51,42,32,34,26,22,74,58,43,30.31,30.20,30.01,10,10,10,14,8,,0.00,0,,108
2012-11-25,45,40,34,32,29,22,87,67,49,30.13,30.04,29.96,10,10,9,13,5,,0.00,4,,110
2012-11-26,44,36,29,31,27,24,82,71,57,30.30,30.23,30.14,10,10,10,12,6,,0.00,2,,109
2012-11-27,51,40,30,32,24,20,68,57,37,30.34,30.25,30.20,10,10,10,15,9,,0.00,0,,102
2012-11-28,55,46,37,31,24,19,49,42,33,30.19,30.07,29.93,10,10,10,16,11,,0.00,2,,147
2012-11-29,55,48,42,34,29,26,58,48,38,30.07,30.01,29.96,10,10,10,14,9,,0.00,1,,182
2012-11-30,54,49,44,43,37,33,93,67,47,29.97,29.90,29.81,10,10,7,18,13,21,0.22,6,Rain,170